Time;durP1;ratioP1;P1;durP2;ratioP2;P2;SDS_P1;SDS_P2;PMS_P1;PMS_P2;Temp;Humidity;BMP_temperature;BMP_pressure;BME280_temperature;BME280_humidity;BME280_pressure;Samples;Min_cycle;Max_cycle;Signal;HPM_P1;HPM_P2
2024/01/12 00:01:53;;;;;;;10.77;2.35;;;5.00;99.90;;;;;;6319162;28;20182;-80
2024/01/12 00:04:55;;;;;;;11.27;2.85;;;5.00;99.90;;;;;;6294071;28;20048;-81
2024/01/12 00:07:56;;;;;;;11.80;2.20;;;5.00;99.90;;;;;;6315646;28;20091;-80
2024/01/12 00:10:58;;;;;;;11.80;2.00;;;5.00;99.90;;;;;;6292897;28;20060;-81
2024/01/12 00:13:59;;;;;;;11.52;2.30;;;5.00;99.90;;;;;;6273575;28;20055;-81
2024/01/12 00:17:01;;;;;;;10.32;2.33;;;5.00;99.90;;;;;;6292896;28;20048;-80
2024/01/12 00:20:06;;;;;;;8.80;2.30;;;5.00;99.90;;;;;;6280332;28;20148;-80
2024/01/12 00:23:07;;;;;;;10.95;2.03;;;5.00;99.90;;;;;;6295840;28;20056;-81
2024/01/12 00:26:09;;;;;;;8.70;2.30;;;5.10;99.90;;;;;;6324308;28;20055;-80
2024/01/12 00:29:11;;;;;;;11.93;2.35;;;5.00;99.90;;;;;;6298780;28;20135;-81
2024/01/12 00:32:12;;;;;;;9.40;1.90;;;5.10;99.90;;;;;;6304509;28;20041;-81
2024/01/12 00:35:14;;;;;;;16.80;2.20;;;5.10;99.90;;;;;;6301650;28;20048;-81
2024/01/12 00:38:16;;;;;;;10.85;2.00;;;5.00;99.90;;;;;;6294955;28;20059;-83
2024/01/12 00:41:18;;;;;;;13.25;2.40;;;5.10;99.90;;;;;;6296200;28;20048;-81
2024/01/12 00:44:21;;;;;;;13.40;2.35;;;5.10;99.90;;;;;;6302479;28;20056;-81
2024/01/12 00:47:23;;;;;;;11.23;2.30;;;5.10;99.90;;;;;;6295230;28;20419;-81
2024/01/12 00:50:25;;;;;;;15.98;2.85;;;5.20;99.90;;;;;;6299540;28;20059;-81
2024/01/12 00:53:26;;;;;;;7.97;2.17;;;5.20;99.90;;;;;;6293635;28;20052;-81
2024/01/12 00:56:28;;;;;;;16.88;2.15;;;5.10;99.90;;;;;;6311567;28;20059;-80
2024/01/12 00:59:30;;;;;;;14.07;2.50;;;5.10;99.90;;;;;;6302053;28;20052;-81
2024/01/12 01:02:32;;;;;;;13.02;2.75;;;5.10;99.90;;;;;;6317829;28;20044;-81
2024/01/12 01:05:33;;;;;;;12.57;2.40;;;5.10;99.90;;;;;;6293439;28;20149;-81
2024/01/12 01:08:35;;;;;;;15.07;3.08;;;5.20;99.90;;;;;;6294096;28;20052;-81
2024/01/12 01:11:37;;;;;;;13.15;2.67;;;5.10;99.90;;;;;;6299021;28;20570;-81
2024/01/12 01:14:38;;;;;;;9.82;2.45;;;5.10;99.90;;;;;;6287711;28;20559;-82
2024/01/12 01:17:40;;;;;;;11.50;2.65;;;5.10;99.90;;;;;;6279855;28;20064;-80
2024/01/12 01:20:42;;;;;;;12.20;2.85;;;5.20;99.90;;;;;;6274851;28;20052;-80
2024/01/12 01:23:43;;;;;;;15.57;2.63;;;5.10;99.90;;;;;;6316666;28;20052;-81
2024/01/12 01:26:45;;;;;;;15.88;2.45;;;5.10;99.90;;;;;;6310790;28;20052;-82
2024/01/12 01:29:47;;;;;;;14.00;2.72;;;5.10;99.90;;;;;;6285462;28;20056;-80
2024/01/12 01:32:48;;;;;;;17.90;2.95;;;5.10;99.90;;;;;;6302242;28;20064;-80
2024/01/12 01:35:50;;;;;;;16.08;3.03;;;5.10;99.90;;;;;;6298858;28;20518;-81
2024/01/12 01:38:52;;;;;;;17.60;2.67;;;5.10;99.90;;;;;;6296137;28;20071;-81
2024/01/12 01:41:54;;;;;;;14.93;2.58;;;5.10;99.90;;;;;;6302781;28;20055;-80
2024/01/12 01:44:56;;;;;;;16.92;2.70;;;5.10;99.90;;;;;;6294809;28;20491;-80
2024/01/12 01:47:57;;;;;;;14.70;2.35;;;5.10;99.90;;;;;;6278248;28;20055;-80
2024/01/12 01:50:59;;;;;;;18.02;2.83;;;5.10;99.90;;;;;;6293282;28;20529;-81
2024/01/12 01:54:01;;;;;;;20.15;3.00;;;5.10;99.90;;;;;;6296886;28;20060;-80
2024/01/12 01:57:02;;;;;;;15.27;2.72;;;5.10;99.90;;;;;;6321313;28;20059;-81
2024/01/12 02:00:06;;;;;;;18.65;3.05;;;5.10;99.90;;;;;;6292783;28;20053;-80
2024/01/12 02:03:08;;;;;;;16.95;2.97;;;5.10;99.90;;;;;;6321615;28;20058;-80
2024/01/12 02:06:10;;;;;;;12.85;2.50;;;5.10;99.90;;;;;;6297091;28;20182;-80
2024/01/12 02:09:12;;;;;;;19.98;2.97;;;5.10;99.90;;;;;;6293840;28;20419;-81
2024/01/12 02:12:14;;;;;;;14.45;2.58;;;5.10;99.90;;;;;;6295458;28;20263;-81
2024/01/12 02:15:17;;;;;;;13.00;2.40;;;5.10;99.90;;;;;;6318089;28;20052;-81
2024/01/12 02:18:19;;;;;;;18.83;2.60;;;5.10;99.90;;;;;;6278380;28;20051;-80
2024/01/12 02:21:21;;;;;;;14.75;2.63;;;5.10;99.90;;;;;;6296689;28;20169;-80
2024/01/12 02:24:22;;;;;;;13.50;2.58;;;5.10;99.90;;;;;;6298658;28;20511;-80
2024/01/12 02:27:24;;;;;;;16.92;2.72;;;5.10;99.90;;;;;;6301157;28;20164;-81
2024/01/12 02:30:25;;;;;;;15.05;2.80;;;5.10;99.90;;;;;;6283184;28;20507;-82
2024/01/12 02:33:27;;;;;;;21.08;2.72;;;5.10;99.90;;;;;;6320245;28;20044;-81
2024/01/12 02:36:29;;;;;;;17.95;3.05;;;5.10;99.90;;;;;;6294669;28;20052;-81
2024/01/12 02:39:30;;;;;;;13.88;2.50;;;5.00;99.90;;;;;;6277792;28;20145;-81
2024/01/12 02:42:32;;;;;;;17.02;2.08;;;5.10;99.90;;;;;;6318722;28;20048;-81
2024/01/12 02:45:34;;;;;;;20.10;2.95;;;5.10;99.90;;;;;;6303320;28;20059;-81
2024/01/12 02:48:36;;;;;;;22.90;3.03;;;5.10;99.90;;;;;;6293219;28;20056;-81
2024/01/12 02:51:37;;;;;;;18.42;2.80;;;5.10;99.90;;;;;;6295401;28;20059;-81
2024/01/12 02:54:39;;;;;;;19.27;3.55;;;5.20;99.90;;;;;;6315480;28;20081;-80
2024/01/12 02:57:40;;;;;;;20.98;3.60;;;5.20;99.90;;;;;;6295868;28;20059;-81
2024/01/12 03:00:42;;;;;;;20.80;3.45;;;5.20;99.90;;;;;;6295211;28;20052;-81
2024/01/12 03:03:44;;;;;;;23.48;3.00;;;5.30;99.90;;;;;;6316027;28;20070;-81
2024/01/12 03:06:46;;;;;;;20.65;3.20;;;5.20;99.90;;;;;;6295046;28;20040;-81
2024/01/12 03:09:47;;;;;;;18.10;2.80;;;5.20;99.90;;;;;;6276232;28;20178;-82
2024/01/12 03:12:49;;;;;;;19.73;3.42;;;5.20;99.90;;;;;;6273128;28;20127;-82
2024/01/12 03:15:50;;;;;;;18.70;3.55;;;5.20;99.90;;;;;;6303177;28;20093;-81
2024/01/12 03:18:52;;;;;;;18.80;3.40;;;5.20;99.90;;;;;;6291810;28;20052;-83
2024/01/12 03:21:54;;;;;;;21.73;3.90;;;5.30;99.90;;;;;;6314463;28;20094;-81
2024/01/12 03:24:56;;;;;;;21.05;3.53;;;5.30;99.90;;;;;;6280007;28;20059;-81
2024/01/12 03:27:57;;;;;;;24.08;3.97;;;5.30;99.90;;;;;;6297446;28;20055;-82
2024/01/12 03:30:59;;;;;;;21.33;4.03;;;5.30;99.90;;;;;;6274152;28;20165;-81
2024/01/12 03:34:01;;;;;;;20.67;3.30;;;5.30;99.90;;;;;;6282257;28;20048;-83
2024/01/12 03:37:03;;;;;;;18.35;3.03;;;5.30;99.90;;;;;;6288878;28;20052;-82
2024/01/12 03:40:04;;;;;;;20.63;3.90;;;5.30;99.90;;;;;;6295163;28;20056;-81
2024/01/12 03:43:06;;;;;;;23.90;2.83;;;5.30;99.90;;;;;;6295317;28;20584;-82
2024/01/12 03:46:07;;;;;;;24.60;3.08;;;5.30;99.90;;;;;;6279754;28;20424;-81
2024/01/12 03:49:09;;;;;;;19.60;2.72;;;5.30;99.90;;;;;;6309219;28;20415;-82
2024/01/12 03:52:11;;;;;;;17.27;3.00;;;5.30;99.90;;;;;;6294297;28;20055;-81
2024/01/12 03:55:16;;;;;;;19.08;3.22;;;5.30;99.90;;;;;;6292044;28;20052;-81
2024/01/12 03:58:18;;;;;;;25.60;4.07;;;5.30;99.90;;;;;;6307407;28;20040;-82
2024/01/12 04:01:21;;;;;;;22.73;3.65;;;5.30;99.90;;;;;;6271084;28;20048;-82
2024/01/12 04:04:23;;;;;;;27.00;3.65;;;5.30;99.90;;;;;;6283791;28;20131;-82
2024/01/12 04:07:25;;;;;;;18.88;3.42;;;5.30;99.90;;;;;;6293232;28;20052;-82
2024/01/12 04:10:26;;;;;;;23.95;3.72;;;5.30;99.90;;;;;;6311888;28;20055;-80
2024/01/12 04:13:28;;;;;;;24.67;3.58;;;5.30;99.90;;;;;;6294433;28;20195;-78
2024/01/12 04:16:30;;;;;;;24.95;3.53;;;5.30;99.90;;;;;;6298745;28;20179;-81
2024/01/12 04:19:32;;;;;;;18.98;3.08;;;5.30;99.90;;;;;;6284159;28;20059;-80
2024/01/12 04:22:34;;;;;;;21.67;3.42;;;5.30;99.90;;;;;;6277115;28;20048;-81
2024/01/12 04:25:35;;;;;;;22.13;3.20;;;5.30;99.90;;;;;;6312776;28;20423;-81
2024/01/12 04:28:37;;;;;;;22.45;3.85;;;5.30;99.90;;;;;;6293354;28;20093;-82
2024/01/12 04:31:39;;;;;;;24.45;3.85;;;5.30;99.90;;;;;;6293365;28;20048;-81
2024/01/12 04:34:41;;;;;;;20.92;3.38;;;5.30;99.90;;;;;;6280988;28;20052;-81
2024/01/12 04:37:43;;;;;;;23.63;3.10;;;5.30;99.90;;;;;;6275088;28;20146;-81
2024/01/12 04:40:44;;;;;;;19.60;3.03;;;5.30;99.90;;;;;;6292144;28;20063;-81
2024/01/12 04:43:46;;;;;;;24.60;3.47;;;5.40;99.90;;;;;;6290115;28;20052;-83
2024/01/12 04:46:47;;;;;;;23.10;3.55;;;5.30;99.90;;;;;;6274062;28;20056;-82
2024/01/12 04:49:49;;;;;;;24.63;3.47;;;5.30;99.90;;;;;;6289988;28;20536;-81
2024/01/12 04:52:52;;;;;;;18.95;3.05;;;5.30;99.90;;;;;;6291902;28;20102;-81
2024/01/12 04:55:53;;;;;;;22.27;3.80;;;5.30;99.90;;;;;;6273917;28;20052;-81
2024/01/12 04:58:55;;;;;;;23.75;3.78;;;5.30;99.90;;;;;;6289907;28;20423;-81
2024/01/12 05:01:56;;;;;;;19.33;3.33;;;5.30;99.90;;;;;;6295008;28;20044;-81
2024/01/12 05:04:58;;;;;;;20.52;3.67;;;5.30;99.90;;;;;;6279919;28;20045;-81
2024/01/12 05:08:00;;;;;;;26.75;3.47;;;5.40;99.90;;;;;;6297632;28;20125;-81
2024/01/12 05:11:02;;;;;;;21.10;3.72;;;5.40;99.90;;;;;;6297076;28;20048;-81
2024/01/12 05:14:04;;;;;;;23.08;3.53;;;5.40;99.90;;;;;;6274413;28;20098;-81
2024/01/12 05:17:05;;;;;;;24.08;3.55;;;5.30;99.90;;;;;;6297658;28;20507;-81
2024/01/12 05:20:07;;;;;;;17.30;2.70;;;5.40;99.90;;;;;;6297079;28;20051;-80
2024/01/12 05:23:09;;;;;;;25.45;2.90;;;5.30;99.90;;;;;;6298440;28;20056;-82
2024/01/12 05:26:11;;;;;;;21.20;3.40;;;5.30;99.90;;;;;;6296806;28;20041;-82
2024/01/12 05:29:14;;;;;;;17.33;2.90;;;5.40;99.90;;;;;;6293752;28;20052;-82
2024/01/12 05:32:16;;;;;;;22.70;3.15;;;5.40;99.90;;;;;;6296655;28;20048;-83
2024/01/12 05:35:18;;;;;;;21.70;3.58;;;5.40;99.90;;;;;;6278281;28;20044;-82
2024/01/12 05:38:20;;;;;;;22.55;3.00;;;5.40;99.90;;;;;;6296380;28;20070;-82
2024/01/12 05:41:21;;;;;;;19.65;3.30;;;5.40;99.90;;;;;;6275497;28;20088;-81
2024/01/12 05:44:23;;;;;;;30.45;3.17;;;5.40;99.90;;;;;;6290676;28;20048;-82
2024/01/12 05:47:25;;;;;;;24.90;3.22;;;5.40;99.90;;;;;;6296736;28;20141;-81
2024/01/12 05:50:27;;;;;;;24.83;3.63;;;5.40;99.90;;;;;;6292971;28;20052;-81
2024/01/12 05:53:28;;;;;;;19.38;2.88;;;5.40;99.90;;;;;;6297270;28;20401;-80
2024/01/12 05:56:30;;;;;;;25.63;3.42;;;5.40;99.90;;;;;;6297511;28;20048;-81
2024/01/12 05:59:33;;;;;;;21.73;3.55;;;5.40;99.90;;;;;;6295489;28;20432;-82
2024/01/12 06:02:34;;;;;;;21.63;2.70;;;5.40;99.90;;;;;;6309758;28;20048;-82
2024/01/12 06:05:36;;;;;;;15.43;2.95;;;5.40;99.90;;;;;;6276018;28;20056;-82
2024/01/12 06:08:38;;;;;;;17.52;3.40;;;5.40;99.90;;;;;;6299709;28;20137;-81
2024/01/12 06:11:40;;;;;;;22.42;3.33;;;5.40;99.90;;;;;;6295555;28;20048;-81
2024/01/12 06:14:41;;;;;;;17.92;3.17;;;5.40;99.90;;;;;;6285711;28;20055;-81
2024/01/12 06:17:43;;;;;;;17.75;3.10;;;5.40;99.90;;;;;;6277989;28;20177;-82
2024/01/12 06:20:45;;;;;;;18.38;3.33;;;5.40;99.90;;;;;;6294824;28;20518;-82
2024/01/12 06:23:46;;;;;;;23.05;3.60;;;5.40;99.90;;;;;;6293475;28;20133;-81
2024/01/12 06:26:48;;;;;;;21.17;3.33;;;5.40;99.90;;;;;;6282321;28;20253;-81
2024/01/12 06:29:50;;;;;;;24.42;3.28;;;5.40;99.90;;;;;;6281027;28;20518;-82
2024/01/12 06:32:52;;;;;;;23.83;2.85;;;5.40;99.90;;;;;;6307795;28;20055;-83
2024/01/12 06:35:54;;;;;;;23.77;3.47;;;5.40;99.90;;;;;;6296740;28;20130;-82
2024/01/12 06:38:57;;;;;;;17.77;3.05;;;5.40;99.90;;;;;;6295146;28;20488;-85
2024/01/12 06:41:59;;;;;;;18.42;3.28;;;5.40;99.90;;;;;;6277163;28;20098;-81
2024/01/12 06:45:01;;;;;;;14.98;2.65;;;5.40;99.90;;;;;;6282184;28;20056;-81
2024/01/12 06:48:02;;;;;;;17.75;3.03;;;5.40;99.90;;;;;;6303158;28;20139;-81
2024/01/12 06:51:04;;;;;;;24.25;3.15;;;5.40;99.90;;;;;;6276710;28;20135;-81
2024/01/12 06:54:06;;;;;;;19.20;2.80;;;5.40;99.90;;;;;;6301291;28;20082;-81
2024/01/12 06:57:08;;;;;;;18.75;3.05;;;5.40;99.90;;;;;;6295096;28;20072;-80
2024/01/12 07:00:10;;;;;;;19.83;3.33;;;5.40;99.90;;;;;;6273580;28;20131;-81
2024/01/12 07:03:11;;;;;;;19.10;3.10;;;5.40;99.90;;;;;;6277247;28;20415;-81
2024/01/12 07:06:13;;;;;;;19.13;3.00;;;5.40;99.90;;;;;;6298569;28;20060;-80
2024/01/12 07:09:16;;;;;;;18.23;3.08;;;5.40;99.90;;;;;;6311701;28;20044;-81
2024/01/12 07:12:17;;;;;;;17.15;2.65;;;5.40;99.90;;;;;;6269698;28;20060;-80
2024/01/12 07:15:20;;;;;;;19.08;2.67;;;5.40;99.90;;;;;;6289458;28;20052;-80
2024/01/12 07:18:22;;;;;;;17.00;2.92;;;5.40;99.90;;;;;;6294816;28;20052;-81
2024/01/12 07:21:23;;;;;;;21.38;5.85;;;5.40;99.90;;;;;;6312769;28;20058;-81
2024/01/12 07:24:25;;;;;;;25.30;8.95;;;5.40;99.90;;;;;;6275880;28;20048;-80
2024/01/12 07:27:26;;;;;;;26.52;5.60;;;5.40;99.90;;;;;;6294473;28;20052;-81
2024/01/12 07:30:28;;;;;;;25.45;7.35;;;5.40;99.90;;;;;;6291015;28;20546;-83
2024/01/12 07:33:30;;;;;;;27.02;7.28;;;5.40;99.90;;;;;;6276991;28;20053;-83
2024/01/12 07:36:32;;;;;;;26.65;6.68;;;5.40;99.90;;;;;;6293998;28;20416;-82
2024/01/12 07:39:33;;;;;;;24.08;6.15;;;5.40;99.90;;;;;;6294875;28;20048;-82
2024/01/12 07:42:35;;;;;;;25.60;5.95;;;5.40;99.90;;;;;;6297758;28;20329;-81
2024/01/12 07:45:37;;;;;;;22.40;5.13;;;5.40;99.90;;;;;;6298672;28;20091;-81
2024/01/12 07:48:38;;;;;;;19.65;4.82;;;5.40;99.90;;;;;;6315092;28;20047;-81
2024/01/12 07:51:40;;;;;;;19.10;4.00;;;5.40;99.90;;;;;;6294684;28;20052;-81
2024/01/12 07:54:42;;;;;;;19.45;4.05;;;5.40;99.90;;;;;;6280678;28;20048;-82
2024/01/12 07:57:44;;;;;;;17.25;3.08;;;5.40;99.90;;;;;;6318360;28;20052;-81
2024/01/12 08:00:45;;;;;;;15.27;3.00;;;5.40;99.90;;;;;;6292781;28;20048;-83
2024/01/12 08:03:47;;;;;;;16.35;2.40;;;5.50;99.90;;;;;;6295667;28;20507;-81
2024/01/12 08:06:49;;;;;;;15.88;2.58;;;5.50;99.90;;;;;;6295974;28;20052;-82
2024/01/12 08:09:50;;;;;;;13.40;2.38;;;5.50;99.90;;;;;;6296252;28;20079;-82
2024/01/12 08:12:52;;;;;;;18.75;2.83;;;5.50;99.90;;;;;;6297356;28;20074;-82
2024/01/12 08:15:54;;;;;;;13.18;2.05;;;5.50;99.90;;;;;;6276180;28;20048;-83
2024/01/12 08:18:55;;;;;;;12.40;2.00;;;5.50;99.90;;;;;;6290039;28;20045;-81
2024/01/12 08:21:57;;;;;;;12.35;2.28;;;5.50;99.90;;;;;;6292514;28;20057;-82
2024/01/12 08:25:02;;;;;;;11.45;2.30;;;5.50;99.90;;;;;;6292545;28;20099;-83
2024/01/12 08:28:03;;;;;;;15.40;2.05;;;5.50;99.90;;;;;;6276356;28;20766;-81
2024/01/12 08:31:05;;;;;;;10.30;1.95;;;5.50;99.90;;;;;;6280584;28;20072;-84
2024/01/12 08:34:07;;;;;;;18.55;3.28;;;5.50;99.90;;;;;;6304943;28;20471;-87
2024/01/12 08:37:08;;;;;;;24.85;7.40;;;5.60;99.90;;;;;;6294483;28;20048;-85
2024/01/12 08:40:10;;;;;;;15.93;2.72;;;5.60;99.90;;;;;;6279542;28;20060;-82
2024/01/12 08:43:12;;;;;;;15.25;4.25;;;5.60;99.90;;;;;;6298523;28;20053;-82
2024/01/12 08:46:14;;;;;;;17.63;3.05;;;5.60;99.90;;;;;;6299356;28;20054;-86
2024/01/12 08:49:16;;;;;;;15.27;2.45;;;5.60;99.90;;;;;;6274930;28;20060;-86
2024/01/12 08:52:19;;;;;;;10.50;2.40;;;5.70;99.90;;;;;;6314346;28;20052;-91
2024/01/12 08:55:21;;;;;;;14.77;3.42;;;5.60;99.90;;;;;;6276233;28;20131;-92
2024/01/12 08:58:23;;;;;;;10.18;2.33;;;5.70;99.90;;;;;;6282691;28;20415;-93
2024/01/12 09:01:24;;;;;;;11.38;2.00;;;5.60;99.90;;;;;;6297080;28;20131;-89
2024/01/12 09:04:28;;;;;;;12.70;2.05;;;5.60;99.90;;;;;;6303507;28;20064;-89
2024/01/12 09:07:30;;;;;;;8.07;2.03;;;5.60;99.90;;;;;;6294498;28;20500;-90
2024/01/12 09:10:32;;;;;;;16.40;1.95;;;5.70;99.90;;;;;;6294325;28;20387;-87
2024/01/12 09:13:33;;;;;;;10.82;2.30;;;5.60;99.80;;;;;;6289027;28;20051;-85
2024/01/12 09:16:35;;;;;;;15.23;2.50;;;5.60;99.90;;;;;;6293419;28;20099;-86
2024/01/12 09:19:37;;;;;;;13.25;2.17;;;5.70;99.60;;;;;;6294853;28;20048;-88
2024/01/12 09:22:39;;;;;;;13.35;2.40;;;5.80;99.00;;;;;;6294005;28;20500;-95
2024/01/12 09:25:40;;;;;;;15.32;2.38;;;5.70;99.30;;;;;;6275932;28;20060;-89
2024/01/12 09:28:42;;;;;;;14.63;2.53;;;5.70;98.90;;;;;;6295335;28;20771;-90
2024/01/12 09:31:44;;;;;;;14.82;2.53;;;5.80;99.30;;;;;;6274812;28;20079;-87
2024/01/12 09:34:46;;;;;;;13.55;2.55;;;5.80;98.20;;;;;;6293400;28;20086;-88
2024/01/12 09:37:48;;;;;;;16.90;2.70;;;5.80;97.50;;;;;;6275836;28;20500;-87
2024/01/12 09:40:49;;;;;;;13.30;2.10;;;5.80;98.80;;;;;;6290850;28;20057;-86
2024/01/12 09:43:51;;;;;;;13.07;2.30;;;5.80;97.90;;;;;;6296484;28;20075;-92
2024/01/12 09:46:53;;;;;;;12.25;2.08;;;5.80;98.70;;;;;;6294973;28;20062;-85
2024/01/12 09:49:54;;;;;;;11.95;2.35;;;5.90;99.40;;;;;;6300223;28;20055;-83
2024/01/12 09:52:56;;;;;;;16.98;2.85;;;5.90;97.60;;;;;;6299067;28;20057;-89
2024/01/12 09:55:58;;;;;;;8.98;2.00;;;5.90;99.60;;;;;;6301982;28;20068;-88
2024/01/12 09:59:08;;;;;;;8.27;1.90;;;5.80;97.80;;;;;;6277614;28;20185;-83
2024/01/12 10:02:09;;;;;;;16.52;2.00;;;5.90;98.70;;;;;;6297073;28;20044;-83
2024/01/12 10:05:11;;;;;;;12.73;1.90;;;5.90;98.40;;;;;;6279935;28;20416;-84
2024/01/12 10:08:13;;;;;;;11.07;2.00;;;6.00;99.60;;;;;;6294967;28;20510;-81
2024/01/12 10:11:14;;;;;;;14.40;2.42;;;6.00;99.90;;;;;;6296171;28;20118;-83
2024/01/12 10:14:16;;;;;;;14.63;2.10;;;6.00;99.90;;;;;;6289766;28;20571;-81
2024/01/12 10:17:18;;;;;;;11.63;2.53;;;6.00;99.90;;;;;;6296258;28;20428;-81
2024/01/12 10:20:21;;;;;;;10.70;2.15;;;6.00;99.90;;;;;;6297118;28;20047;-81
2024/01/12 10:23:23;;;;;;;11.23;2.38;;;6.00;99.90;;;;;;6296749;28;20048;-81
2024/01/12 10:26:25;;;;;;;11.55;2.92;;;6.00;99.90;;;;;;6298825;28;20057;-81
2024/01/12 10:29:27;;;;;;;9.68;2.03;;;6.00;99.90;;;;;;6276275;28;20135;-86
2024/01/12 10:32:29;;;;;;;10.65;1.98;;;6.00;99.90;;;;;;6301648;28;20051;-93
2024/01/12 10:35:31;;;;;;;12.70;2.33;;;6.00;99.90;;;;;;6296010;28;20052;-81
2024/01/12 10:38:33;;;;;;;9.65;2.10;;;6.00;99.90;;;;;;6275886;28;20053;-83
2024/01/12 10:41:35;;;;;;;10.20;2.28;;;5.90;99.90;;;;;;6279855;28;20059;-94
2024/01/12 10:44:37;;;;;;;11.68;2.05;;;6.00;99.90;;;;;;6276080;28;20064;-91
2024/01/12 10:47:39;;;;;;;7.72;2.08;;;6.00;99.90;;;;;;6295191;28;20067;-84
2024/01/12 10:50:41;;;;;;;13.38;2.28;;;6.00;99.90;;;;;;6280068;28;20052;-87
2024/01/12 10:53:43;;;;;;;10.85;1.95;;;6.00;99.90;;;;;;6281548;28;20044;-88
2024/01/12 10:56:44;;;;;;;8.38;2.08;;;6.00;99.90;;;;;;6294555;28;20072;-84
2024/01/12 10:59:46;;;;;;;10.20;1.85;;;6.10;99.90;;;;;;6291315;28;20154;-82
2024/01/12 11:02:49;;;;;;;8.25;2.17;;;6.10;99.90;;;;;;6320314;28;20056;-82
2024/01/12 11:05:51;;;;;;;8.30;1.95;;;6.10;99.70;;;;;;6295063;28;20080;-82
2024/01/12 11:08:54;;;;;;;12.00;1.92;;;6.10;99.90;;;;;;6319171;28;20486;-82
2024/01/12 11:11:56;;;;;;;16.58;2.10;;;6.20;99.70;;;;;;6295406;28;20048;-85
2024/01/12 11:14:58;;;;;;;8.30;1.75;;;6.20;99.90;;;;;;6316381;28;20056;-83
2024/01/12 11:18:00;;;;;;;11.13;2.17;;;6.20;99.90;;;;;;6295342;28;20052;-82
2024/01/12 11:21:02;;;;;;;11.13;2.13;;;6.30;99.90;;;;;;6319109;28;20048;-82
2024/01/12 11:24:04;;;;;;;10.15;1.90;;;6.20;99.90;;;;;;6295926;28;20060;-82
2024/01/12 11:27:06;;;;;;;12.25;2.10;;;6.20;99.90;;;;;;6319055;28;20130;-82
2024/01/12 11:30:09;;;;;;;12.02;1.98;;;6.20;99.90;;;;;;6293449;28;20056;-81
2024/01/12 11:33:16;;;;;;;8.85;1.60;;;6.20;99.90;;;;;;6269151;28;20514;-82
2024/01/12 11:36:18;;;;;;;8.77;1.65;;;6.20;98.70;;;;;;6318001;28;20059;-82
2024/01/12 11:39:20;;;;;;;8.77;2.03;;;6.20;99.90;;;;;;6276646;28;20510;-83
2024/01/12 11:42:21;;;;;;;7.43;1.85;;;6.30;99.10;;;;;;6318451;28;20063;-83
2024/01/12 11:45:23;;;;;;;8.02;1.85;;;6.20;97.90;;;;;;6301345;28;20060;-82
2024/01/12 11:48:25;;;;;;;12.18;2.60;;;6.30;98.90;;;;;;6294454;28;20060;-81
2024/01/12 11:51:27;;;;;;;9.25;1.90;;;6.30;99.40;;;;;;6318514;28;20470;-82
2024/01/12 11:54:29;;;;;;;8.73;2.30;;;6.40;97.90;;;;;;6294599;28;20048;-82
2024/01/12 11:57:30;;;;;;;10.65;2.13;;;6.40;97.80;;;;;;6300614;28;20055;-81
2024/01/12 12:00:33;;;;;;;6.38;2.10;;;6.40;97.30;;;;;;6296605;28;20048;-82
2024/01/12 12:03:35;;;;;;;10.55;2.05;;;6.40;97.30;;;;;;6319074;28;20055;-82
2024/01/12 12:06:36;;;;;;;6.65;1.90;;;6.50;97.20;;;;;;6276327;28;20048;-82
2024/01/12 12:09:38;;;;;;;8.25;2.00;;;6.50;96.10;;;;;;6317764;28;20143;-82
2024/01/12 12:12:40;;;;;;;9.20;1.90;;;6.50;96.50;;;;;;6293859;28;20060;-81
2024/01/12 12:15:41;;;;;;;15.85;2.30;;;6.40;96.30;;;;;;6317143;28;20064;-81
2024/01/12 12:18:43;;;;;;;8.77;1.85;;;6.40;95.50;;;;;;6294515;28;20057;-82
2024/01/12 12:21:45;;;;;;;9.65;2.28;;;6.50;96.60;;;;;;6317959;28;20162;-81
2024/01/12 12:24:46;;;;;;;8.23;1.85;;;6.50;95.70;;;;;;6294461;28;20049;-82
2024/01/12 12:27:48;;;;;;;10.63;2.22;;;6.50;95.60;;;;;;6324530;28;20514;-81
2024/01/12 12:30:50;;;;;;;8.52;2.10;;;6.50;94.50;;;;;;6300772;28;20052;-81
2024/01/12 12:33:51;;;;;;;9.20;2.00;;;6.50;94.10;;;;;;6278235;28;20137;-81
2024/01/12 12:36:53;;;;;;;9.93;2.40;;;6.40;93.90;;;;;;6320802;28;20056;-80
2024/01/12 12:39:55;;;;;;;10.63;2.20;;;6.40;93.60;;;;;;6303411;28;20049;-79
2024/01/12 12:43:00;;;;;;;9.43;2.05;;;6.40;95.00;;;;;;6295402;28;20049;-80
2024/01/12 12:46:02;;;;;;;10.32;1.98;;;6.40;94.00;;;;;;6295253;28;20059;-83
2024/01/12 12:49:04;;;;;;;9.45;1.67;;;6.40;93.10;;;;;;6292689;28;20576;-80
2024/01/12 12:52:06;;;;;;;8.05;1.77;;;6.40;94.40;;;;;;6296442;28;20055;-83
2024/01/12 12:55:08;;;;;;;7.35;1.73;;;6.40;93.90;;;;;;6275451;28;20056;-86
2024/01/12 12:58:10;;;;;;;9.85;1.60;;;6.40;93.40;;;;;;6285727;28;20423;-81
2024/01/12 13:01:13;;;;;;;8.82;1.50;;;6.40;93.40;;;;;;6293882;28;20045;-87
2024/01/12 13:04:15;;;;;;;6.03;1.40;;;6.40;94.30;;;;;;6277624;28;20056;-83
2024/01/12 13:07:17;;;;;;;10.32;1.40;;;6.40;94.00;;;;;;6298692;28;20062;-82
2024/01/12 13:10:19;;;;;;;5.00;1.33;;;6.50;94.30;;;;;;6308861;28;20065;-84
2024/01/12 13:13:20;;;;;;;9.55;1.38;;;6.50;93.90;;;;;;6300833;28;20052;-88
2024/01/12 13:16:23;;;;;;;7.50;1.42;;;6.40;94.70;;;;;;6319225;28;20056;-85
2024/01/12 13:19:25;;;;;;;5.65;1.08;;;6.40;95.10;;;;;;6273557;28;20056;-88
2024/01/12 13:22:28;;;;;;;4.00;1.10;;;6.40;95.50;;;;;;6296221;28;20048;-83
2024/01/12 13:25:30;;;;;;;5.78;1.13;;;6.50;94.70;;;;;;6323108;28;20048;-81
2024/01/12 13:28:31;;;;;;;4.97;1.20;;;6.50;94.50;;;;;;6282290;28;20048;-84
2024/01/12 13:31:33;;;;;;;4.25;1.02;;;6.50;94.30;;;;;;6290904;28;20056;-88
2024/01/12 13:34:35;;;;;;;4.10;1.10;;;6.50;94.50;;;;;;6299611;28;20521;-84
2024/01/12 13:37:37;;;;;;;7.32;1.10;;;6.40;95.00;;;;;;6279811;28;20562;-87
2024/01/12 13:40:38;;;;;;;3.88;0.90;;;6.40;93.10;;;;;;6289606;28;20075;-89
2024/01/12 13:43:40;;;;;;;4.70;1.20;;;6.40;93.10;;;;;;6295364;28;20052;-80
2024/01/12 13:46:42;;;;;;;4.00;1.17;;;6.40;95.20;;;;;;6313772;28;20066;-90
2024/01/12 13:49:44;;;;;;;6.38;1.20;;;6.40;94.80;;;;;;6284918;28;20056;-90
2024/01/12 13:52:45;;;;;;;2.45;0.90;;;6.40;94.10;;;;;;6282366;28;20053;-90
2024/01/12 13:55:47;;;;;;;4.18;1.35;;;6.40;93.80;;;;;;6299440;28;20074;-88
2024/01/12 13:58:49;;;;;;;6.30;1.20;;;6.40;94.30;;;;;;6283660;28;20503;-86
2024/01/12 14:01:51;;;;;;;3.67;1.30;;;6.40;93.80;;;;;;6279981;28;20048;-87
2024/01/12 14:04:52;;;;;;;4.40;1.20;;;6.50;94.60;;;;;;6288674;28;20419;-86
2024/01/12 14:08:14;;;;;;;5.65;1.10;;;6.50;94.00;;;;;;6276463;28;20072;-87
2024/01/12 14:11:16;;;;;;;4.85;1.08;;;6.40;94.30;;;;;;6283064;28;20056;-81
2024/01/12 14:14:17;;;;;;;4.43;1.05;;;6.40;95.20;;;;;;6285316;28;20048;-82
2024/01/12 14:17:19;;;;;;;4.88;1.20;;;6.40;94.80;;;;;;6303628;28;20586;-81
2024/01/12 14:20:23;;;;;;;6.20;1.30;;;6.40;95.20;;;;;;6303486;28;20052;-80
2024/01/12 14:23:24;;;;;;;3.95;1.38;;;6.50;95.70;;;;;;6301051;28;20045;-82
2024/01/12 14:26:26;;;;;;;4.57;1.20;;;6.50;95.60;;;;;;6296349;28;20059;-83
2024/01/12 14:29:28;;;;;;;5.75;1.33;;;6.50;94.60;;;;;;6293083;28;20085;-86
2024/01/12 14:32:29;;;;;;;5.63;1.45;;;6.50;94.80;;;;;;6295435;28;20551;-84
2024/01/12 14:35:32;;;;;;;8.02;1.90;;;6.50;95.20;;;;;;6277714;28;20055;-82
2024/01/12 14:38:34;;;;;;;7.00;1.70;;;6.50;95.70;;;;;;6278874;28;20052;-85
2024/01/12 14:41:36;;;;;;;6.85;1.63;;;6.40;96.10;;;;;;6276768;28;20101;-84
2024/01/12 14:44:38;;;;;;;4.13;1.40;;;6.40;96.90;;;;;;6285739;28;20060;-84
2024/01/12 14:47:42;;;;;;;3.83;1.20;;;6.30;96.90;;;;;;6274446;28;20060;-82
2024/01/12 14:50:44;;;;;;;5.15;1.30;;;6.20;96.80;;;;;;6294093;28;20049;-84
2024/01/12 14:53:45;;;;;;;5.97;1.33;;;6.20;96.70;;;;;;6294299;28;20151;-87
2024/01/12 14:56:47;;;;;;;3.72;1.30;;;6.20;97.00;;;;;;6295348;28;20060;-86
2024/01/12 14:59:49;;;;;;;4.38;1.38;;;6.20;97.00;;;;;;6297138;28;20052;-82
2024/01/12 15:02:51;;;;;;;7.15;1.60;;;6.10;98.60;;;;;;6294081;28;20055;-84
2024/01/12 15:05:52;;;;;;;5.53;1.80;;;6.10;97.90;;;;;;6296819;28;20088;-80
2024/01/12 15:08:54;;;;;;;4.40;1.55;;;6.00;99.30;;;;;;6292913;28;20139;-80
2024/01/12 15:11:56;;;;;;;4.82;1.50;;;6.00;99.90;;;;;;6275504;28;20448;-78
2024/01/12 15:14:58;;;;;;;5.45;1.77;;;6.00;99.90;;;;;;6299229;28;20041;-80
2024/01/12 15:18:00;;;;;;;5.63;1.85;;;6.00;99.90;;;;;;6295798;28;20056;-79
2024/01/12 15:21:04;;;;;;;3.83;1.48;;;5.90;99.90;;;;;;6296857;28;20048;-81
2024/01/12 15:24:06;;;;;;;4.15;1.52;;;6.00;99.90;;;;;;6279446;28;20205;-82
2024/01/12 15:27:07;;;;;;;5.53;1.70;;;6.00;99.90;;;;;;6295162;28;20056;-83
2024/01/12 15:30:10;;;;;;;7.38;1.65;;;6.00;99.90;;;;;;6291735;28;20564;-79
2024/01/12 15:33:12;;;;;;;4.32;1.60;;;6.00;99.90;;;;;;6292715;28;20133;-78
2024/01/12 15:36:14;;;;;;;7.35;1.85;;;5.90;99.90;;;;;;6284261;28;20178;-79
2024/01/12 15:39:16;;;;;;;4.47;1.50;;;5.90;99.90;;;;;;6292243;28;20183;-80
2024/01/12 15:42:17;;;;;;;5.78;1.90;;;5.90;99.90;;;;;;6291587;28;20503;-80
2024/01/12 15:45:22;;;;;;;5.28;1.90;;;5.80;99.90;;;;;;6286943;28;20063;-79
2024/01/12 15:48:24;;;;;;;6.78;1.90;;;5.80;99.90;;;;;;6289159;28;20403;-79
2024/01/12 15:51:25;;;;;;;7.82;2.03;;;5.80;99.90;;;;;;6291064;28;20063;-79